createdAt,value
2022-11-27T00:00:17.562Z,85
2022-11-27T00:10:19.657Z,85
2022-11-27T00:20:25.052Z,86
2022-11-27T00:30:24.702Z,85
2022-11-27T00:40:26.946Z,85
2022-11-27T00:50:28.761Z,85
2022-11-27T01:00:30.485Z,85
2022-11-27T01:10:32.442Z,85
2022-11-27T01:20:34.877Z,85
2022-11-27T01:30:36.625Z,85
2022-11-27T01:40:38.505Z,85
2022-11-27T01:50:40.337Z,85
2022-11-27T02:00:42.162Z,86
2022-11-27T02:10:44.605Z,86
2022-11-27T02:20:46.470Z,86
2022-11-27T02:30:48.898Z,86
2022-11-27T02:40:51.487Z,86
2022-11-27T02:50:53.401Z,86
2022-11-27T03:00:55.557Z,86
2022-11-27T03:10:57.432Z,86
2022-11-27T03:20:59.687Z,87
2022-11-27T03:31:02.329Z,87
2022-11-27T03:41:04.631Z,87
2022-11-27T03:51:07.107Z,87
2022-11-27T04:01:09.095Z,87
2022-11-27T04:11:10.981Z,87
2022-11-27T04:21:13.383Z,87
2022-11-27T04:31:15.934Z,87
2022-11-27T04:41:18.507Z,88
2022-11-27T04:51:20.628Z,88
2022-11-27T05:01:22.411Z,88
2022-11-27T05:11:24.666Z,88
2022-11-27T05:21:26.892Z,88
2022-11-27T05:31:29.203Z,88
2022-11-27T05:41:31.406Z,87
2022-11-27T05:51:33.564Z,87
2022-11-27T06:01:36.125Z,87
2022-11-27T06:11:38.310Z,86
2022-11-27T06:21:40.204Z,86
2022-11-27T06:31:42.102Z,86
2022-11-27T06:41:44.572Z,86
2022-11-27T07:01:48.488Z,85
2022-11-27T07:11:50.753Z,84
2022-11-27T07:21:53.000Z,84
2022-11-27T07:31:55.395Z,84
2022-11-27T07:42:00.052Z,84
2022-11-27T07:52:00.387Z,83
2022-11-27T08:02:02.691Z,83
2022-11-27T08:12:04.872Z,82
2022-11-27T08:22:07.196Z,82
2022-11-27T08:32:09.681Z,82
2022-11-27T08:42:11.576Z,82
2022-11-27T08:52:13.346Z,81
2022-11-27T09:02:15.473Z,81
2022-11-27T09:12:17.509Z,80
2022-11-27T09:22:19.802Z,80
2022-11-27T09:32:22.063Z,79
2022-11-27T09:42:24.511Z,79
2022-11-27T09:52:26.168Z,78
2022-11-27T10:02:28.691Z,78
2022-11-27T10:12:31.035Z,78
2022-11-27T10:22:32.939Z,77
2022-11-27T10:42:36.641Z,75
2022-11-27T10:52:38.533Z,75
2022-11-27T11:12:42.522Z,73
2022-11-27T11:22:44.201Z,73
2022-11-27T11:32:46.490Z,73
2022-11-27T11:42:48.286Z,70
2022-11-27T11:52:50.035Z,69
2022-11-27T12:02:51.953Z,69
2022-11-27T12:12:54.403Z,67
2022-11-27T12:22:56.409Z,66
2022-11-27T12:32:58.267Z,66
2022-11-27T12:43:00.284Z,66
2022-11-27T13:03:04.784Z,63
2022-11-27T13:13:06.535Z,63
2022-11-27T13:23:08.218Z,64
2022-11-27T13:33:10.498Z,65
2022-11-27T13:43:12.196Z,66
2022-11-27T14:03:16.688Z,68
2022-11-27T14:13:20.606Z,69
2022-11-27T14:23:21.234Z,69
2022-11-27T14:33:23.808Z,69
2022-11-27T14:43:26.253Z,69
2022-11-27T14:53:28.755Z,69
2022-11-27T15:03:30.664Z,69
2022-11-27T15:03:54.592Z,69
2022-11-27T15:13:40.465Z,70
2022-11-27T15:23:42.307Z,70
2022-11-27T15:33:44.816Z,71
2022-11-27T15:43:47.220Z,72
2022-11-27T15:53:49.018Z,74
2022-11-27T16:03:50.760Z,74
2022-11-27T16:13:52.851Z,73
2022-11-27T16:23:55.020Z,73
2022-11-27T16:33:56.709Z,73
2022-11-27T16:54:00.555Z,71
2022-11-27T17:04:02.285Z,70
2022-11-27T17:14:04.486Z,70
2022-11-27T17:24:10.275Z,70
2022-11-27T17:34:09.398Z,69
2022-11-27T17:44:11.536Z,69
2022-11-27T17:54:13.886Z,69
2022-11-27T18:04:16.433Z,69
2022-11-27T18:14:18.945Z,69
2022-11-27T18:24:23.821Z,69
2022-11-27T18:34:22.573Z,70
2022-11-27T18:44:24.350Z,71
2022-11-27T18:54:26.870Z,72
2022-11-27T19:04:29.377Z,71
2022-11-27T19:14:31.188Z,70
2022-11-27T19:24:33.569Z,69
2022-11-27T19:34:35.288Z,69
2022-11-27T19:54:39.445Z,69
2022-11-27T20:04:41.481Z,69
2022-11-27T20:14:43.311Z,69
2022-11-27T20:34:47.864Z,70
2022-11-27T20:44:49.689Z,71
2022-11-27T20:54:52.318Z,71
2022-11-27T21:04:54.915Z,70
2022-11-27T21:55:10.519Z,70
2022-11-27T22:35:14.722Z,69
2022-11-27T22:55:19.206Z,69
2022-11-27T23:05:21.674Z,69
2022-11-27T23:15:23.414Z,70
2022-11-27T23:25:25.844Z,70
2022-11-27T23:35:27.666Z,71
2022-11-27T23:45:29.482Z,71
2022-11-27T23:55:31.430Z,72
